Terminal Aerodrome Forecast
Issued by NWS Binghamton, NY

Home | Current Version | Previous Version | Text Only | Print | Product List | Glossary On
Versions: 1 2 3 4 5 6 7 8 9 10 11 12 13 14 15 16 17 18 19
000
FTUS41 KBGM 281200 AAB
TAFAVP
TAF AMD
KAVP 281251Z 2813/2912 24010KT P6SM SCT009 OVC025
      TEMPO 2813/2815 5SM -SHRA BR BKN009 OVC015
     FM281500 25010KT P6SM -SHRA OVC035
     FM282100 29015KT P6SM -SHRA OVC025
     FM290000 29008KT P6SM BKN035=

USA.gov is the U.S. government's official web portal to all federal, state and local government web resources and services.